Time;durP1;ratioP1;P1;durP2;ratioP2;P2;SDS_P1;SDS_P2;PMS_P1;PMS_P2;Temp;Humidity;BMP_temperature;BMP_pressure;BME280_temperature;BME280_humidity;BME280_pressure;Samples;Min_cycle;Max_cycle;Signal;HPM_P1;HPM_P2
2022/03/20 00:00:54;;;;;;;18.83;16.20;;;10.60;44.00;;;;;;5115647;28;20524;-71
2022/03/20 00:03:22;;;;;;;16.50;14.80;;;10.50;43.90;;;;;;5114176;28;20881;-71
2022/03/20 00:05:50;;;;;;;18.20;16.07;;;10.50;44.10;;;;;;5109654;28;20960;-71
2022/03/20 00:08:17;;;;;;;16.93;15.17;;;10.40;44.20;;;;;;5112162;28;20466;-71
2022/03/20 00:10:48;;;;;;;16.50;14.70;;;10.40;44.20;;;;;;5112399;28;20483;-70
2022/03/20 00:13:18;;;;;;;17.00;15.20;;;10.40;44.20;;;;;;5108225;28;20474;-71
2022/03/20 00:15:46;;;;;;;17.33;15.33;;;10.40;44.00;;;;;;5102109;28;20486;-72
2022/03/20 00:18:15;;;;;;;19.97;16.37;;;10.40;44.20;;;;;;5104134;28;20455;-71
2022/03/20 00:20:45;;;;;;;21.33;17.30;;;10.40;44.10;;;;;;5101110;28;20867;-70
2022/03/20 00:23:13;;;;;;;17.90;16.10;;;10.30;44.20;;;;;;5099057;28;20509;-70
2022/03/20 00:25:42;;;;;;;19.57;16.40;;;10.30;44.00;;;;;;5110505;28;20467;-71
2022/03/20 00:28:10;;;;;;;20.00;17.37;;;10.20;44.10;;;;;;5112674;28;20964;-71
2022/03/20 00:30:38;;;;;;;18.53;15.77;;;10.30;44.10;;;;;;5108223;28;21016;-71
2022/03/20 00:33:05;;;;;;;18.40;16.50;;;10.20;44.10;;;;;;5095396;28;20454;-71
2022/03/20 00:35:32;;;;;;;21.40;15.53;;;10.20;44.10;;;;;;5099789;28;20528;-70
2022/03/20 00:37:59;;;;;;;20.10;16.20;;;10.20;44.20;;;;;;5100642;28;20463;-70
2022/03/20 00:40:26;;;;;;;16.50;14.77;;;10.10;44.20;;;;;;5108147;28;20479;-71
2022/03/20 00:42:53;;;;;;;17.53;15.67;;;10.10;44.10;;;;;;5093794;28;20458;-71
2022/03/20 00:45:20;;;;;;;22.00;15.60;;;10.10;44.20;;;;;;5093663;28;20463;-71
2022/03/20 00:47:49;;;;;;;18.10;16.00;;;10.00;44.10;;;;;;5107381;28;20471;-71
2022/03/20 00:50:16;;;;;;;19.83;16.03;;;10.00;44.00;;;;;;5109567;28;20509;-71
2022/03/20 00:52:42;;;;;;;19.90;15.97;;;10.00;44.00;;;;;;5102736;28;20467;-71
2022/03/20 00:55:10;;;;;;;18.33;16.40;;;10.00;44.50;;;;;;5094554;28;21009;-71
2022/03/20 00:57:36;;;;;;;19.00;16.70;;;10.00;44.00;;;;;;5102263;28;20460;-71
2022/03/20 01:00:04;;;;;;;20.17;17.17;;;9.90;44.90;;;;;;5111484;28;20527;-71
2022/03/20 01:02:37;;;;;;;20.23;16.47;;;9.90;44.80;;;;;;5095024;28;20467;-72
2022/03/20 01:05:06;;;;;;;18.60;16.63;;;9.90;44.80;;;;;;5106030;28;20462;-70
2022/03/20 01:07:33;;;;;;;18.50;16.50;;;9.80;44.80;;;;;;5102232;28;20863;-71
2022/03/20 01:10:01;;;;;;;21.40;16.13;;;9.80;44.90;;;;;;5102131;28;20464;-71
2022/03/20 01:12:28;;;;;;;20.10;17.77;;;9.80;44.60;;;;;;5109221;28;20644;-71
2022/03/20 01:14:55;;;;;;;19.80;16.67;;;9.80;44.70;;;;;;5110910;28;20996;-71
2022/03/20 01:17:22;;;;;;;20.97;17.00;;;9.70;44.80;;;;;;5109191;28;20467;-70
2022/03/20 01:19:49;;;;;;;17.43;15.30;;;9.70;44.80;;;;;;5104783;28;20557;-71
2022/03/20 01:22:17;;;;;;;22.87;16.83;;;9.70;44.90;;;;;;5115385;28;20924;-70
2022/03/20 01:24:44;;;;;;;21.47;17.70;;;9.70;45.10;;;;;;5116325;28;20494;-70
2022/03/20 01:27:13;;;;;;;23.80;18.33;;;9.60;45.10;;;;;;5105665;28;20466;-70
2022/03/20 01:29:40;;;;;;;18.40;16.50;;;9.60;45.20;;;;;;5103995;28;20460;-71
2022/03/20 01:32:08;;;;;;;20.70;17.90;;;9.60;45.30;;;;;;5115082;28;20479;-70
2022/03/20 01:34:35;;;;;;;20.40;17.40;;;9.60;45.30;;;;;;5102919;28;20580;-71
2022/03/20 01:37:02;;;;;;;18.73;16.03;;;9.60;45.30;;;;;;5116898;28;20454;-70
2022/03/20 01:39:30;;;;;;;20.67;18.27;;;9.50;45.50;;;;;;5108118;28;20459;-71
2022/03/20 01:41:57;;;;;;;18.43;16.50;;;9.50;45.50;;;;;;5104389;28;20487;-70
2022/03/20 01:44:31;;;;;;;19.00;16.47;;;9.50;45.60;;;;;;5107709;28;20459;-71
2022/03/20 01:46:59;;;;;;;21.00;17.53;;;9.50;45.80;;;;;;5107509;28;20482;-71
2022/03/20 01:49:26;;;;;;;21.63;15.60;;;9.40;45.70;;;;;;5111646;28;20459;-71
2022/03/20 01:54:39;;;;;;;19.20;16.10;;;9.40;45.80;;;;;;5096421;28;20842;-71
2022/03/20 01:57:09;;;;;;;20.37;17.03;;;9.40;46.00;;;;;;5115774;28;20462;-70
2022/03/20 01:59:36;;;;;;;17.77;15.77;;;9.30;46.10;;;;;;5098171;28;20459;-71
2022/03/20 02:02:04;;;;;;;19.77;17.13;;;9.40;46.30;;;;;;5104562;28;21002;-70
2022/03/20 02:04:31;;;;;;;18.83;16.80;;;9.30;46.30;;;;;;5099416;28;20865;-70
2022/03/20 02:06:59;;;;;;;21.00;16.90;;;9.30;46.40;;;;;;5100417;28;20463;-70
2022/03/20 02:09:26;;;;;;;20.77;18.30;;;9.30;46.30;;;;;;5106205;28;20456;-69
2022/03/20 02:11:56;;;;;;;17.97;15.77;;;9.20;46.00;;;;;;5099658;28;20928;-70
2022/03/20 02:14:23;;;;;;;19.13;16.90;;;9.20;46.00;;;;;;5100934;28;20541;-70
2022/03/20 02:16:50;;;;;;;18.63;16.70;;;9.30;46.10;;;;;;5106419;28;20470;-70
2022/03/20 02:19:18;;;;;;;23.73;16.80;;;9.20;46.20;;;;;;5108903;28;20467;-70
2022/03/20 02:21:48;;;;;;;19.47;16.57;;;9.20;47.00;;;;;;5110325;28;20568;-70
2022/03/20 02:24:36;;;;;;;19.67;16.90;;;9.20;46.40;;;;;;5099252;28;20821;-70
2022/03/20 02:27:09;;;;;;;23.50;17.83;;;9.20;46.50;;;;;;5113479;28;20483;-71
2022/03/20 02:29:36;;;;;;;21.23;17.23;;;9.10;47.00;;;;;;5116775;28;20458;-70
2022/03/20 02:32:05;;;;;;;18.43;16.43;;;9.20;46.70;;;;;;5103921;28;20475;-71
2022/03/20 02:34:32;;;;;;;19.23;16.90;;;9.10;46.90;;;;;;5095307;28;20984;-70
2022/03/20 02:37:01;;;;;;;21.50;16.73;;;9.10;47.00;;;;;;5093989;28;20491;-70
2022/03/20 02:39:29;;;;;;;19.30;16.80;;;9.10;47.00;;;;;;5105604;28;20535;-70
2022/03/20 02:41:57;;;;;;;19.80;16.93;;;9.00;46.90;;;;;;5115216;28;20482;-70
2022/03/20 02:44:48;;;;;;;19.93;16.67;;;9.00;46.80;;;;;;5101179;28;20444;-70
2022/03/20 02:47:15;;;;;;;19.80;17.37;;;9.00;47.00;;;;;;5100657;28;20455;-70
2022/03/20 02:49:43;;;;;;;23.60;17.13;;;9.00;46.90;;;;;;5112399;28;20455;-70
2022/03/20 02:52:11;;;;;;;20.87;18.47;;;9.00;46.90;;;;;;5112272;28;20841;-69
2022/03/20 02:54:38;;;;;;;20.07;17.73;;;8.90;47.00;;;;;;5107489;28;20917;-70
2022/03/20 02:57:08;;;;;;;21.90;17.23;;;8.90;47.20;;;;;;5106817;28;20461;-70
2022/03/20 02:59:35;;;;;;;21.97;18.17;;;8.90;47.20;;;;;;5113051;28;20969;-71
2022/03/20 03:02:02;;;;;;;19.60;17.47;;;8.90;47.30;;;;;;5094344;28;20548;-70
2022/03/20 03:04:28;;;;;;;21.17;18.90;;;8.80;47.50;;;;;;5098232;28;20500;-70
2022/03/20 03:06:55;;;;;;;23.60;17.90;;;8.80;47.60;;;;;;5104254;28;20456;-70
2022/03/20 03:12:08;;;;;;;25.47;18.60;;;8.80;47.90;;;;;;5109439;28;20531;-70
2022/03/20 03:17:27;;;;;;;18.83;16.73;;;8.70;48.00;;;;;;5102711;28;20454;-70
2022/03/20 03:19:54;;;;;;;21.63;19.33;;;8.80;48.20;;;;;;5105558;28;20939;-71
2022/03/20 03:22:21;;;;;;;20.60;17.87;;;8.70;48.00;;;;;;5109045;28;20481;-70
2022/03/20 03:24:50;;;;;;;20.30;17.60;;;8.70;47.90;;;;;;5105475;28;20958;-70
2022/03/20 03:27:17;;;;;;;22.97;18.77;;;8.70;47.80;;;;;;5097684;28;20463;-69
2022/03/20 03:29:43;;;;;;;20.47;17.33;;;8.70;47.90;;;;;;5109764;28;20944;-70
2022/03/20 03:32:10;;;;;;;21.20;18.67;;;8.70;47.90;;;;;;5108503;28;20485;-69
2022/03/20 03:37:22;;;;;;;19.03;16.00;;;8.70;47.90;;;;;;5101910;28;20459;-70
2022/03/20 03:39:50;;;;;;;21.00;17.50;;;8.60;47.80;;;;;;5107270;28;20991;-70
2022/03/20 03:42:17;;;;;;;20.83;17.60;;;8.60;47.90;;;;;;5113498;28;20478;-71
2022/03/20 03:44:44;;;;;;;23.30;20.07;;;8.60;48.00;;;;;;5111773;28;20455;-71
2022/03/20 03:47:10;;;;;;;19.90;17.80;;;8.50;47.90;;;;;;5106920;28;20474;-71
2022/03/20 03:49:37;;;;;;;21.03;17.87;;;8.60;47.80;;;;;;5103313;28;20471;-70
2022/03/20 03:52:05;;;;;;;19.93;17.47;;;8.50;47.70;;;;;;5108266;28;20483;-70
2022/03/20 03:54:32;;;;;;;27.00;20.57;;;8.50;47.80;;;;;;5108186;28;20847;-71
2022/03/20 03:57:00;;;;;;;22.63;18.97;;;8.50;47.90;;;;;;5109715;28;20470;-71
2022/03/20 03:59:27;;;;;;;23.20;19.00;;;8.40;47.80;;;;;;5106427;28;20462;-70
2022/03/20 04:01:55;;;;;;;23.43;18.60;;;8.40;48.10;;;;;;5110802;28;20486;-70
2022/03/20 04:04:22;;;;;;;21.47;18.20;;;8.40;48.20;;;;;;5112280;28;20864;-70
2022/03/20 04:06:49;;;;;;;22.37;19.97;;;8.30;48.40;;;;;;5094428;28;20460;-70
2022/03/20 04:09:15;;;;;;;22.07;18.00;;;8.30;48.50;;;;;;5106935;28;20466;-70
2022/03/20 04:11:42;;;;;;;21.37;18.47;;;8.30;49.30;;;;;;5108980;28;20478;-70
2022/03/20 04:14:11;;;;;;;23.23;19.33;;;8.20;49.20;;;;;;5092776;28;20463;-70
2022/03/20 04:16:38;;;;;;;22.93;18.60;;;8.10;49.20;;;;;;5102193;28;20458;-72
2022/03/20 04:19:04;;;;;;;22.70;18.43;;;8.10;49.50;;;;;;5111179;28;20474;-70
2022/03/20 04:21:31;;;;;;;21.77;19.20;;;8.10;49.70;;;;;;5111858;28;20497;-71
2022/03/20 04:23:59;;;;;;;20.80;18.07;;;8.00;49.50;;;;;;5092477;28;20469;-71
2022/03/20 04:26:26;;;;;;;24.20;18.47;;;7.90;49.60;;;;;;5096296;28;20464;-70
2022/03/20 04:28:54;;;;;;;21.83;19.53;;;7.90;50.00;;;;;;5112647;28;20465;-71
2022/03/20 04:31:22;;;;;;;22.40;17.43;;;7.90;50.10;;;;;;5097021;28;21001;-72
2022/03/20 04:33:51;;;;;;;22.47;18.80;;;7.90;50.20;;;;;;5098450;28;20542;-71
2022/03/20 04:36:21;;;;;;;23.53;18.87;;;7.80;50.30;;;;;;5095853;28;20483;-71
2022/03/20 04:38:48;;;;;;;22.30;18.00;;;7.70;50.40;;;;;;5094212;28;20474;-71
2022/03/20 04:41:17;;;;;;;20.57;17.63;;;7.70;50.40;;;;;;5105268;28;20478;-71
2022/03/20 04:43:44;;;;;;;22.80;18.63;;;7.70;50.40;;;;;;5102268;28;20459;-71
2022/03/20 04:46:11;;;;;;;20.47;18.13;;;7.70;50.40;;;;;;5095668;28;20466;-70
2022/03/20 04:59:36;;;;;;;25.30;18.83;;;7.50;50.20;;;;;;5107596;28;20451;-69
2022/03/20 05:02:03;;;;;;;26.90;19.37;;;7.50;50.30;;;;;;5100601;28;21015;-68
2022/03/20 05:04:31;;;;;;;24.13;20.73;;;7.50;50.30;;;;;;5103351;28;20485;-72
2022/03/20 05:06:58;;;;;;;23.10;19.30;;;7.40;50.20;;;;;;5099938;28;20451;-68
2022/03/20 05:14:57;;;;;;;22.13;19.03;;;7.30;50.30;;;;;;5103138;28;20479;-68
2022/03/20 05:17:24;;;;;;;24.50;19.60;;;7.30;50.40;;;;;;5102368;28;20949;-69
2022/03/20 05:19:52;;;;;;;21.30;18.67;;;7.30;50.70;;;;;;5107320;28;20964;-68
2022/03/20 05:22:18;;;;;;;25.03;18.83;;;7.20;50.70;;;;;;5103393;28;20467;-69
2022/03/20 05:24:45;;;;;;;23.13;19.60;;;7.20;50.60;;;;;;5099722;28;20824;-70
2022/03/20 05:27:12;;;;;;;22.43;18.87;;;7.10;50.50;;;;;;5101308;28;20496;-69
2022/03/20 05:29:40;;;;;;;23.00;19.70;;;7.10;50.80;;;;;;5110593;28;20467;-69
2022/03/20 05:32:08;;;;;;;23.67;19.60;;;7.00;50.80;;;;;;5102492;28;21035;-69
2022/03/20 05:34:36;;;;;;;27.10;19.50;;;6.90;51.00;;;;;;5112235;28;20475;-69
2022/03/20 05:37:07;;;;;;;22.17;19.47;;;6.90;51.30;;;;;;5100885;28;20540;-69
2022/03/20 05:39:34;;;;;;;24.77;19.33;;;6.80;51.40;;;;;;5108260;28;20461;-69
2022/03/20 05:42:01;;;;;;;22.63;19.13;;;6.70;51.90;;;;;;5109678;28;20491;-68
2022/03/20 05:44:28;;;;;;;23.17;19.40;;;6.70;52.30;;;;;;5114283;28;20459;-69
2022/03/20 05:46:57;;;;;;;27.87;20.10;;;6.60;52.60;;;;;;5112000;28;20465;-69
2022/03/20 05:49:25;;;;;;;23.60;19.80;;;6.60;52.60;;;;;;5113294;28;20506;-69
2022/03/20 05:51:54;;;;;;;20.83;18.50;;;6.60;52.70;;;;;;5109618;28;20478;-69
2022/03/20 05:54:22;;;;;;;24.97;20.20;;;6.60;53.00;;;;;;5103780;28;20466;-69
2022/03/20 05:59:35;;;;;;;24.70;20.13;;;6.60;53.70;;;;;;5098674;28;20481;-70
2022/03/20 06:02:01;;;;;;;28.93;20.70;;;6.60;53.70;;;;;;5096355;28;20548;-69
2022/03/20 06:04:28;;;;;;;25.53;19.40;;;6.70;53.90;;;;;;5099418;28;20463;-68
2022/03/20 06:06:58;;;;;;;23.13;18.53;;;6.70;54.10;;;;;;5095834;28;20459;-68
2022/03/20 06:09:26;;;;;;;26.87;20.00;;;6.80;54.60;;;;;;5098959;28;20471;-69
2022/03/20 06:11:52;;;;;;;22.90;19.10;;;6.80;54.60;;;;;;5097248;28;20479;-68
2022/03/20 06:14:19;;;;;;;25.80;21.60;;;6.90;54.90;;;;;;5112617;28;20814;-68
2022/03/20 06:16:48;;;;;;;23.80;18.93;;;6.90;54.70;;;;;;5106709;28;20460;-69
2022/03/20 06:19:15;;;;;;;25.37;20.73;;;6.90;54.50;;;;;;5111580;28;20560;-68
2022/03/20 06:21:42;;;;;;;26.40;21.20;;;6.90;54.60;;;;;;5096605;28;20486;-69
2022/03/20 06:24:09;;;;;;;25.80;20.97;;;7.00;54.60;;;;;;5107030;28;20463;-69
2022/03/20 06:26:38;;;;;;;23.53;19.73;;;7.00;54.40;;;;;;5115202;28;20478;-69
2022/03/20 06:29:06;;;;;;;23.67;20.07;;;7.10;54.70;;;;;;5112060;28;20469;-70
2022/03/20 06:31:34;;;;;;;24.33;18.63;;;7.10;54.70;;;;;;5110825;28;20479;-71
2022/03/20 06:34:01;;;;;;;23.93;20.10;;;7.20;54.50;;;;;;5116208;28;20961;-70
2022/03/20 06:36:28;;;;;;;27.53;20.73;;;7.30;54.30;;;;;;5110381;28;20504;-72
2022/03/20 06:38:55;;;;;;;24.53;20.80;;;7.30;54.40;;;;;;5099631;28;20485;-70
2022/03/20 06:41:22;;;;;;;26.87;19.10;;;7.40;54.40;;;;;;5106235;28;20491;-69
2022/03/20 06:43:51;;;;;;;21.53;19.17;;;7.50;53.90;;;;;;5115757;28;20442;-70
2022/03/20 06:46:17;;;;;;;31.10;20.00;;;7.50;53.50;;;;;;5110280;28;20483;-69
2022/03/20 06:48:44;;;;;;;25.90;20.40;;;7.60;53.40;;;;;;5104711;28;20470;-69
2022/03/20 06:51:11;;;;;;;26.77;20.60;;;7.60;53.20;;;;;;5103006;28;20494;-69
2022/03/20 06:53:38;;;;;;;24.20;19.30;;;7.70;52.90;;;;;;5095283;28;20811;-69
2022/03/20 06:56:05;;;;;;;23.63;19.13;;;7.70;52.70;;;;;;5094992;28;20439;-68
2022/03/20 06:58:31;;;;;;;25.13;21.63;;;7.70;52.50;;;;;;5094813;28;20448;-69
2022/03/20 07:01:00;;;;;;;21.33;18.20;;;7.70;52.60;;;;;;5094814;28;20478;-69
2022/03/20 07:03:26;;;;;;;27.27;20.43;;;7.80;52.60;;;;;;5094806;28;20455;-68
2022/03/20 07:05:53;;;;;;;26.10;18.90;;;7.90;52.70;;;;;;5094682;28;20486;-69
2022/03/20 07:08:22;;;;;;;21.87;19.27;;;7.90;52.30;;;;;;5099679;28;20462;-72
2022/03/20 07:10:49;;;;;;;24.37;19.30;;;8.00;52.10;;;;;;5114143;28;20973;-71
2022/03/20 07:16:01;;;;;;;25.70;20.50;;;8.30;52.20;;;;;;5114414;28;20940;-72
2022/03/20 07:18:28;;;;;;;24.50;20.03;;;8.40;51.70;;;;;;5114949;28;20445;-72
2022/03/20 07:20:56;;;;;;;25.23;20.17;;;8.50;51.40;;;;;;5114496;28;20834;-71
2022/03/20 07:23:23;;;;;;;24.00;21.03;;;8.50;51.10;;;;;;5115056;28;20446;-72
2022/03/20 07:31:19;;;;;;;27.30;19.93;;;8.70;50.40;;;;;;5114564;28;20442;-72
2022/03/20 07:33:48;;;;;;;23.40;19.30;;;8.70;50.20;;;;;;5114642;28;20443;-71
2022/03/20 07:36:15;;;;;;;23.17;19.60;;;8.80;50.30;;;;;;5114765;28;20447;-71
2022/03/20 07:38:42;;;;;;;27.30;21.60;;;8.90;50.40;;;;;;5114578;28;20450;-71
2022/03/20 07:41:09;;;;;;;26.73;21.00;;;9.10;50.30;;;;;;5114463;28;20477;-71
2022/03/20 07:43:36;;;;;;;26.17;21.80;;;9.30;49.90;;;;;;5103460;28;20463;-71
2022/03/20 07:46:06;;;;;;;25.53;20.60;;;9.50;49.40;;;;;;5094193;28;20476;-72
2022/03/20 07:48:34;;;;;;;26.60;22.70;;;9.60;49.00;;;;;;5094130;28;20542;-71
2022/03/20 07:51:01;;;;;;;24.30;20.50;;;9.80;48.80;;;;;;5094025;28;20982;-71
2022/03/20 07:53:27;;;;;;;24.23;20.03;;;9.90;48.20;;;;;;5094348;28;20448;-71
2022/03/20 07:55:54;;;;;;;23.07;20.00;;;10.00;47.00;;;;;;5094233;28;20431;-71
2022/03/20 07:58:21;;;;;;;25.60;21.90;;;10.10;46.80;;;;;;5093765;28;20494;-71
2022/03/20 08:00:48;;;;;;;24.67;21.90;;;10.10;46.50;;;;;;5094185;28;20542;-70
2022/03/20 08:03:16;;;;;;;27.67;22.17;;;10.10;45.60;;;;;;5093757;28;20451;-69
2022/03/20 08:05:44;;;;;;;26.93;22.60;;;10.20;46.00;;;;;;5110019;28;20507;-70
2022/03/20 08:08:14;;;;;;;25.00;20.83;;;10.20;46.00;;;;;;5093654;28;20989;-72
2022/03/20 08:10:42;;;;;;;27.90;22.23;;;10.30;45.90;;;;;;5093933;28;20661;-71
2022/03/20 08:13:09;;;;;;;29.20;23.73;;;10.40;45.80;;;;;;5093878;28;20483;-71
2022/03/20 08:15:38;;;;;;;28.90;23.67;;;10.60;45.70;;;;;;5094027;28;20469;-72
2022/03/20 08:18:06;;;;;;;29.20;23.87;;;10.70;45.50;;;;;;5093734;28;20945;-72
2022/03/20 08:20:33;;;;;;;26.33;22.23;;;10.80;44.50;;;;;;5094140;28;20515;-71
2022/03/20 08:23:01;;;;;;;30.50;24.00;;;11.00;44.10;;;;;;5093863;28;20455;-71
2022/03/20 08:25:28;;;;;;;28.23;22.07;;;11.00;44.10;;;;;;5093341;28;20915;-72
2022/03/20 08:27:54;;;;;;;30.23;24.83;;;11.10;43.40;;;;;;5096630;28;20462;-72
2022/03/20 08:30:22;;;;;;;26.13;23.37;;;11.20;43.10;;;;;;5097787;28;20470;-71
2022/03/20 08:32:49;;;;;;;26.83;23.63;;;11.30;42.80;;;;;;5097759;28;20486;-71
2022/03/20 08:35:17;;;;;;;26.50;22.20;;;11.30;42.70;;;;;;5102504;28;20458;-71
2022/03/20 08:37:45;;;;;;;30.30;23.87;;;11.40;42.60;;;;;;5110893;28;20608;-72
2022/03/20 08:40:16;;;;;;;30.00;22.20;;;11.50;42.20;;;;;;5097467;28;20447;-71
2022/03/20 08:42:44;;;;;;;27.97;23.20;;;11.50;42.70;;;;;;5097420;28;20466;-72
2022/03/20 08:45:12;;;;;;;49.77;26.53;;;11.50;42.60;;;;;;5097331;28;20505;-70
2022/03/20 08:47:39;;;;;;;41.80;24.97;;;11.60;42.50;;;;;;5097175;28;20462;-71
2022/03/20 08:50:07;;;;;;;39.30;25.43;;;11.70;42.60;;;;;;5097303;28;20810;-69
2022/03/20 08:52:34;;;;;;;33.10;24.70;;;11.70;42.50;;;;;;5097408;28;20862;-69
2022/03/20 08:55:04;;;;;;;32.80;24.97;;;11.80;41.90;;;;;;5097146;28;21054;-70
2022/03/20 08:57:33;;;;;;;26.97;22.77;;;11.70;40.30;;;;;;5097413;28;20436;-70
2022/03/20 08:59:59;;;;;;;28.67;24.33;;;11.60;41.30;;;;;;5097187;28;20443;-69
2022/03/20 09:02:26;;;;;;;27.07;23.87;;;11.60;42.00;;;;;;5097257;28;20450;-68
2022/03/20 09:04:53;;;;;;;28.87;25.83;;;11.60;42.00;;;;;;5097259;28;20514;-69
2022/03/20 09:07:20;;;;;;;28.63;24.33;;;11.60;41.80;;;;;;5097196;28;20826;-69
2022/03/20 09:09:47;;;;;;;26.57;23.90;;;11.60;41.70;;;;;;5097362;28;20798;-69
2022/03/20 09:12:13;;;;;;;30.33;25.63;;;11.50;40.90;;;;;;5107848;28;20489;-71
2022/03/20 09:14:41;;;;;;;32.03;24.40;;;11.50;41.40;;;;;;5117345;28;20447;-70
2022/03/20 09:19:55;;;;;;;32.80;25.37;;;11.50;41.70;;;;;;5117067;28;20437;-71
2022/03/20 09:22:21;;;;;;;34.43;24.93;;;11.30;40.50;;;;;;5117306;28;20431;-70
2022/03/20 09:24:48;;;;;;;29.00;23.97;;;11.20;41.30;;;;;;5117065;28;20443;-71
2022/03/20 09:27:15;;;;;;;31.40;25.50;;;11.20;42.10;;;;;;5117043;28;20463;-71
2022/03/20 09:29:43;;;;;;;30.10;22.80;;;11.20;41.90;;;;;;5117000;28;20442;-71
2022/03/20 09:32:11;;;;;;;28.50;23.70;;;11.10;42.80;;;;;;5116633;28;20834;-71
2022/03/20 09:34:37;;;;;;;28.23;23.90;;;11.10;42.70;;;;;;5116716;28;20929;-71
2022/03/20 09:37:05;;;;;;;27.97;23.57;;;11.20;43.10;;;;;;5116666;28;20431;-71
2022/03/20 09:39:32;;;;;;;25.73;21.90;;;11.10;43.10;;;;;;5116070;28;20447;-71
2022/03/20 09:42:00;;;;;;;33.43;24.70;;;11.10;43.00;;;;;;5116594;28;20467;-71
2022/03/20 09:44:27;;;;;;;33.50;25.37;;;11.10;43.20;;;;;;5116869;28;20455;-71
2022/03/20 09:46:55;;;;;;;29.97;23.70;;;11.20;43.00;;;;;;5116615;28;20466;-71
2022/03/20 09:49:25;;;;;;;28.83;24.87;;;11.20;42.90;;;;;;5116638;28;20454;-71
2022/03/20 09:51:53;;;;;;;28.40;22.80;;;11.20;43.30;;;;;;5116649;28;20466;-71
2022/03/20 09:54:20;;;;;;;27.67;23.60;;;11.20;42.60;;;;;;5116704;28;20435;-71
2022/03/20 09:56:51;;;;;;;30.07;24.60;;;11.20;42.70;;;;;;5116568;28;20454;-71
2022/03/20 09:59:19;;;;;;;29.57;25.17;;;11.20;43.00;;;;;;5116192;28;20451;-71
2022/03/20 10:01:45;;;;;;;28.10;25.10;;;11.30;43.10;;;;;;5116626;28;20467;-71
2022/03/20 10:04:16;;;;;;;29.30;25.00;;;11.30;42.90;;;;;;5116305;28;20830;-71
2022/03/20 10:06:44;;;;;;;30.00;26.40;;;11.30;42.80;;;;;;5116401;28;20558;-71
2022/03/20 10:09:12;;;;;;;30.90;25.30;;;11.40;42.90;;;;;;5116445;28;20537;-71
2022/03/20 10:11:41;;;;;;;27.20;23.13;;;11.50;42.50;;;;;;5116119;28;20997;-71
2022/03/20 10:14:15;;;;;;;31.30;25.70;;;11.70;43.10;;;;;;5116727;28;20495;-71
2022/03/20 10:16:44;;;;;;;27.87;24.13;;;11.90;41.60;;;;;;5116306;28;20427;-71
2022/03/20 10:19:32;;;;;;;29.53;25.80;;;12.10;41.50;;;;;;5116058;28;20443;-70
2022/03/20 10:22:02;;;;;;;31.10;26.37;;;12.30;41.90;;;;;;5115909;28;20482;-71
2022/03/20 10:24:31;;;;;;;32.20;27.73;;;12.50;40.50;;;;;;5116059;28;20901;-71
2022/03/20 10:27:08;;;;;;;30.40;24.50;;;12.80;40.50;;;;;;5116301;28;20482;-71
2022/03/20 10:29:37;;;;;;;27.30;24.40;;;13.10;41.30;;;;;;5116793;28;20430;-71
2022/03/20 10:32:09;;;;;;;27.27;23.27;;;13.30;41.00;;;;;;5116732;28;20458;-72
2022/03/20 10:34:50;;;;;;;29.43;25.13;;;13.50;40.40;;;;;;5116974;28;20438;-71
2022/03/20 10:37:18;;;;;;;27.90;24.87;;;13.70;40.00;;;;;;5116743;28;20427;-72
2022/03/20 10:39:45;;;;;;;31.87;24.83;;;14.00;38.90;;;;;;5117266;28;20797;-72
2022/03/20 10:42:13;;;;;;;28.37;25.40;;;14.50;38.60;;;;;;5117665;28;20462;-72
2022/03/20 10:44:41;;;;;;;29.77;25.20;;;14.90;38.40;;;;;;5117585;28;20467;-71
2022/03/20 10:47:12;;;;;;;27.63;24.63;;;15.20;37.10;;;;;;5117966;28;20475;-71
2022/03/20 10:49:39;;;;;;;29.80;26.60;;;15.20;36.80;;;;;;5119177;28;20844;-71
2022/03/20 10:52:10;;;;;;;28.47;25.53;;;15.10;36.10;;;;;;5119038;28;20550;-71
2022/03/20 10:54:42;;;;;;;28.80;25.90;;;15.10;36.70;;;;;;5119810;28;20424;-71
2022/03/20 10:57:11;;;;;;;28.83;25.50;;;15.10;37.40;;;;;;5116766;28;20443;-71
2022/03/20 10:59:39;;;;;;;31.07;26.53;;;15.20;37.30;;;;;;5116266;28;21048;-71
2022/03/20 11:02:08;;;;;;;28.13;25.23;;;15.20;36.70;;;;;;5110904;28;20479;-71
2022/03/20 11:04:35;;;;;;;28.40;25.10;;;15.30;36.50;;;;;;5094775;28;20428;-71
2022/03/20 11:07:07;;;;;;;29.13;24.50;;;15.60;36.40;;;;;;5103790;28;21020;-71
2022/03/20 11:09:35;;;;;;;29.57;26.40;;;15.60;35.40;;;;;;5115180;28;20463;-71
2022/03/20 11:12:08;;;;;;;29.53;25.77;;;15.50;34.90;;;;;;5114840;28;20475;-71
2022/03/20 11:14:36;;;;;;;31.30;26.70;;;15.40;35.60;;;;;;5112651;28;20434;-70
2022/03/20 11:17:06;;;;;;;28.73;25.40;;;15.00;34.80;;;;;;5094629;28;20452;-70
2022/03/20 11:19:35;;;;;;;30.70;26.27;;;14.80;35.80;;;;;;5094143;28;20455;-71
2022/03/20 11:22:05;;;;;;;30.20;24.50;;;14.70;36.70;;;;;;5094031;28;20472;-71
2022/03/20 11:24:32;;;;;;;29.83;26.57;;;14.70;37.40;;;;;;5094771;28;20477;-71
2022/03/20 11:27:02;;;;;;;29.23;24.77;;;14.60;36.60;;;;;;5094455;28;20568;-71
2022/03/20 11:29:31;;;;;;;28.07;25.20;;;14.50;37.10;;;;;;5094845;28;20493;-70
2022/03/20 11:31:59;;;;;;;28.90;25.23;;;14.20;37.20;;;;;;5094388;28;20468;-70
2022/03/20 11:34:27;;;;;;;29.07;25.97;;;14.00;38.20;;;;;;5094535;28;20455;-70
2022/03/20 11:37:09;;;;;;;33.67;25.70;;;14.00;38.90;;;;;;5094581;28;20470;-70
2022/03/20 11:39:37;;;;;;;27.40;24.57;;;13.90;38.70;;;;;;5094577;28;20451;-70
2022/03/20 11:42:26;;;;;;;27.40;24.40;;;13.90;39.30;;;;;;5094479;28;20471;-70
2022/03/20 11:45:08;;;;;;;29.13;26.00;;;14.00;39.50;;;;;;5094909;28;20424;-70
2022/03/20 11:47:36;;;;;;;28.00;24.93;;;13.90;39.30;;;;;;5094701;28;21012;-70
2022/03/20 11:50:23;;;;;;;30.60;25.67;;;13.80;39.80;;;;;;5094384;28;20444;-70
2022/03/20 11:53:00;;;;;;;30.67;24.43;;;13.60;40.20;;;;;;5094255;28;20550;-70
2022/03/20 11:55:33;;;;;;;31.70;25.53;;;13.50;40.60;;;;;;5093767;28;20898;-70
2022/03/20 11:58:05;;;;;;;33.17;28.20;;;13.40;41.10;;;;;;5094147;28;20447;-70
2022/03/20 12:00:33;;;;;;;31.03;27.60;;;13.20;42.30;;;;;;5094001;28;20495;-71
2022/03/20 12:03:39;;;;;;;31.63;27.83;;;13.00;43.00;;;;;;5093806;28;20471;-71
2022/03/20 12:06:33;;;;;;;28.63;25.47;;;12.70;45.70;;;;;;5094088;28;20791;-71
2022/03/20 12:09:08;;;;;;;33.70;30.10;;;12.40;47.30;;;;;;5093760;28;20785;-71
2022/03/20 12:11:52;;;;;;;36.90;31.20;;;12.10;50.60;;;;;;5093747;28;20528;-71
2022/03/20 12:14:31;;;;;;;37.10;30.80;;;12.00;52.20;;;;;;5093880;28;20424;-71
2022/03/20 12:16:59;;;;;;;34.83;30.17;;;11.80;53.90;;;;;;5093841;28;20416;-71
2022/03/20 12:19:44;;;;;;;36.50;30.67;;;11.70;56.70;;;;;;5093745;28;20432;-71
2022/03/20 12:22:14;;;;;;;35.20;31.40;;;11.50;58.50;;;;;;5092470;28;20482;-71
2022/03/20 12:24:52;;;;;;;41.20;31.30;;;11.50;59.70;;;;;;5093461;28;20839;-71
2022/03/20 12:27:44;;;;;;;36.67;30.20;;;11.30;61.20;;;;;;5093770;28;20558;-71
2022/03/20 12:30:45;;;;;;;39.70;32.77;;;11.20;62.00;;;;;;5093786;28;20819;-71
2022/03/20 12:33:29;;;;;;;37.37;32.27;;;11.20;63.90;;;;;;5049757;28;20498;-71
2022/03/20 12:35:56;;;;;;;34.40;29.57;;;11.10;65.20;;;;;;5093764;28;20426;-71
2022/03/20 12:38:41;;;;;;;36.80;29.87;;;11.00;66.10;;;;;;5093629;28;20443;-72
2022/03/20 12:41:14;;;;;;;34.33;30.63;;;10.90;68.80;;;;;;5093049;28;20521;-71
2022/03/20 12:43:42;;;;;;;35.80;27.60;;;10.80;70.60;;;;;;5093553;28;20424;-71
2022/03/20 12:46:11;;;;;;;30.53;26.07;;;10.80;73.60;;;;;;5093197;28;20976;-72
2022/03/20 12:48:50;;;;;;;32.83;28.00;;;10.60;74.10;;;;;;5093199;28;20464;-72
2022/03/20 12:51:32;;;;;;;29.10;25.37;;;10.50;75.30;;;;;;5093395;28;20459;-72
2022/03/20 12:54:11;;;;;;;34.60;27.43;;;10.40;75.70;;;;;;5093592;28;20485;-72
2022/03/20 12:56:51;;;;;;;33.10;28.00;;;10.30;78.50;;;;;;5093395;28;20890;-72
2022/03/20 12:59:22;;;;;;;34.70;26.93;;;10.30;80.30;;;;;;5093343;28;20424;-72
2022/03/20 13:01:51;;;;;;;32.33;28.83;;;10.30;81.80;;;;;;5093242;28;20475;-72
2022/03/20 13:04:19;;;;;;;36.50;27.50;;;10.20;83.10;;;;;;5093067;28;20454;-72
2022/03/20 13:06:46;;;;;;;32.23;26.70;;;10.20;85.60;;;;;;5093684;28;20452;-72
2022/03/20 13:09:14;;;;;;;32.23;28.50;;;10.20;86.40;;;;;;5093191;28;20813;-72
2022/03/20 13:11:52;;;;;;;34.87;29.07;;;10.20;86.50;;;;;;5093238;28;20805;-72
2022/03/20 13:14:25;;;;;;;31.43;26.17;;;10.20;88.40;;;;;;5094631;28;20427;-72
2022/03/20 13:16:55;;;;;;;36.60;28.27;;;10.30;88.80;;;;;;5097014;28;20518;-72
2022/03/20 13:19:29;;;;;;;33.30;28.43;;;10.30;89.50;;;;;;5096749;28;20929;-72
2022/03/20 13:21:58;;;;;;;31.93;28.37;;;10.20;89.40;;;;;;5097000;28;20485;-72